sensor_id;sensor_type;location;lat;lon;timestamp;pressure;altitude;pressure_sealevel;temperature;humidity
48792;BME280;34587;48.816;9.420;2023-01-25T00:01:39;100427.91;;;2.41;89.84
48792;BME280;34587;48.816;9.420;2023-01-25T00:04:04;100429.09;;;2.49;89.05
48792;BME280;34587;48.816;9.420;2023-01-25T00:06:30;100427.56;;;2.52;88.46
48792;BME280;34587;48.816;9.420;2023-01-25T00:08:55;100418.06;;;2.50;88.16
48792;BME280;34587;48.816;9.420;2023-01-25T00:11:20;100422.78;;;2.41;89.08
48792;BME280;34587;48.816;9.420;2023-01-25T00:13:46;100416.84;;;2.42;89.38
48792;BME280;34587;48.816;9.420;2023-01-25T00:16:11;100417.56;;;2.38;89.32
48792;BME280;34587;48.816;9.420;2023-01-25T00:18:36;100412.19;;;2.52;88.97
48792;BME280;34587;48.816;9.420;2023-01-25T00:21:19;100403.84;;;2.56;88.16
48792;BME280;34587;48.816;9.420;2023-01-25T00:23:45;100392.72;;;2.56;88.16
48792;BME280;34587;48.816;9.420;2023-01-25T00:26:10;100409.84;;;2.57;88.27
48792;BME280;34587;48.816;9.420;2023-01-25T00:28:35;100420.66;;;2.51;88.51
48792;BME280;34587;48.816;9.420;2023-01-25T00:39:18;100412.69;;;2.44;90.42
48792;BME280;34587;48.816;9.420;2023-01-25T00:41:44;100416.69;;;2.37;90.26
48792;BME280;34587;48.816;9.420;2023-01-25T00:44:09;100403.72;;;2.33;90.47
48792;BME280;34587;48.816;9.420;2023-01-25T00:46:34;100406.00;;;2.26;90.68
48792;BME280;34587;48.816;9.420;2023-01-25T00:49:00;100402.31;;;2.41;90.60
48792;BME280;34587;48.816;9.420;2023-01-25T00:51:25;100397.22;;;2.41;90.04
48792;BME280;34587;48.816;9.420;2023-01-25T00:53:50;100398.59;;;2.33;90.54
48792;BME280;34587;48.816;9.420;2023-01-25T00:56:16;100398.47;;;2.50;88.73
48792;BME280;34587;48.816;9.420;2023-01-25T00:58:41;100401.19;;;2.55;88.24
48792;BME280;34587;48.816;9.420;2023-01-25T05:15:55;100296.94;;;2.06;86.65
48792;BME280;34587;48.816;9.420;2023-01-25T05:18:20;100297.19;;;2.12;86.27
48792;BME280;34587;48.816;9.420;2023-01-25T05:20:46;100294.56;;;2.11;86.23
48792;BME280;34587;48.816;9.420;2023-01-25T05:23:11;100289.22;;;2.04;86.60
48792;BME280;34587;48.816;9.420;2023-01-25T05:25:36;100289.94;;;2.02;86.58
48792;BME280;34587;48.816;9.420;2023-01-25T05:28:20;100284.91;;;1.83;87.36
48792;BME280;34587;48.816;9.420;2023-01-25T05:30:45;100289.44;;;1.69;88.22
48792;BME280;34587;48.816;9.420;2023-01-25T05:33:10;100289.47;;;1.90;87.79
48792;BME280;34587;48.816;9.420;2023-01-25T05:35:36;100281.84;;;1.70;88.12
48792;BME280;34587;48.816;9.420;2023-01-25T05:38:01;100274.00;;;1.87;87.45
48792;BME280;34587;48.816;9.420;2023-01-25T05:40:26;100285.19;;;1.89;86.56
48792;BME280;34587;48.816;9.420;2023-01-25T05:42:56;100290.72;;;1.99;85.66
48792;BME280;34587;48.816;9.420;2023-01-25T05:45:22;100284.47;;;1.93;86.23
48792;BME280;34587;48.816;9.420;2023-01-25T05:47:52;100285.84;;;1.85;86.55
48792;BME280;34587;48.816;9.420;2023-01-25T05:50:18;100285.38;;;1.74;87.19
48792;BME280;34587;48.816;9.420;2023-01-25T05:52:45;100284.72;;;1.99;85.48
48792;BME280;34587;48.816;9.420;2023-01-25T05:55:10;100282.19;;;1.99;85.27
48792;BME280;34587;48.816;9.420;2023-01-25T05:57:35;100281.53;;;2.04;85.18
48792;BME280;34587;48.816;9.420;2023-01-25T06:00:02;100281.22;;;1.97;84.29
48792;BME280;34587;48.816;9.420;2023-01-25T06:02:28;100272.50;;;1.92;84.71
48792;BME280;34587;48.816;9.420;2023-01-25T06:04:53;100279.88;;;1.84;85.24
48792;BME280;34587;48.816;9.420;2023-01-25T06:07:18;100274.88;;;1.87;85.30
48792;BME280;34587;48.816;9.420;2023-01-25T06:09:44;100270.38;;;2.02;83.88
48792;BME280;34587;48.816;9.420;2023-01-25T06:12:09;100272.44;;;1.90;85.01
48792;BME280;34587;48.816;9.420;2023-01-25T06:14:34;100273.19;;;1.88;84.88
48792;BME280;34587;48.816;9.420;2023-01-25T06:17:00;100276.44;;;2.04;83.33
48792;BME280;34587;48.816;9.420;2023-01-25T06:19:25;100278.13;;;2.04;83.43
48792;BME280;34587;48.816;9.420;2023-01-25T06:21:51;100265.44;;;2.07;83.49
48792;BME280;34587;48.816;9.420;2023-01-25T06:24:16;100267.75;;;2.01;84.34
48792;BME280;34587;48.816;9.420;2023-01-25T06:26:41;100271.50;;;2.09;83.26
48792;BME280;34587;48.816;9.420;2023-01-25T06:29:06;100274.16;;;2.12;82.63
48792;BME280;34587;48.816;9.420;2023-01-25T06:31:32;100264.88;;;2.14;82.30
48792;BME280;34587;48.816;9.420;2023-01-25T06:33:58;100264.38;;;2.02;82.72
48792;BME280;34587;48.816;9.420;2023-01-25T06:36:28;100269.63;;;2.05;82.45
48792;BME280;34587;48.816;9.420;2023-01-25T06:38:54;100264.66;;;2.08;82.05
48792;BME280;34587;48.816;9.420;2023-01-25T06:41:20;100268.00;;;2.07;81.56
48792;BME280;34587;48.816;9.420;2023-01-25T06:43:46;100268.25;;;2.13;81.93
48792;BME280;34587;48.816;9.420;2023-01-25T06:46:14;100269.88;;;2.11;82.13
48792;BME280;34587;48.816;9.420;2023-01-25T06:48:39;100259.03;;;1.96;82.52
48792;BME280;34587;48.816;9.420;2023-01-25T06:51:08;100262.25;;;2.13;81.73
48792;BME280;34587;48.816;9.420;2023-01-25T06:53:35;100261.53;;;1.94;83.08
48792;BME280;34587;48.816;9.420;2023-01-25T06:56:07;100263.53;;;2.01;82.54
48792;BME280;34587;48.816;9.420;2023-01-25T06:58:33;100250.88;;;2.04;82.30
48792;BME280;34587;48.816;9.420;2023-01-25T07:01:04;100253.03;;;2.16;81.39
48792;BME280;34587;48.816;9.420;2023-01-25T07:03:31;100238.34;;;1.90;82.92
48792;BME280;34587;48.816;9.420;2023-01-25T07:06:07;100247.31;;;2.01;83.05
48792;BME280;34587;48.816;9.420;2023-01-25T07:08:33;100244.81;;;2.02;82.74
48792;BME280;34587;48.816;9.420;2023-01-25T07:11:01;100250.66;;;2.21;81.86
48792;BME280;34587;48.816;9.420;2023-01-25T07:13:28;100241.28;;;2.21;82.03
48792;BME280;34587;48.816;9.420;2023-01-25T07:15:58;100242.97;;;2.21;82.21
48792;BME280;34587;48.816;9.420;2023-01-25T07:18:25;100245.94;;;2.09;82.58
48792;BME280;34587;48.816;9.420;2023-01-25T07:20:51;100250.91;;;2.06;82.96
48792;BME280;34587;48.816;9.420;2023-01-25T07:23:17;100245.34;;;2.16;82.70
48792;BME280;34587;48.816;9.420;2023-01-25T07:25:47;100243.72;;;1.96;82.92
48792;BME280;34587;48.816;9.420;2023-01-25T07:28:14;100235.22;;;2.18;82.10
48792;BME280;34587;48.816;9.420;2023-01-25T07:30:40;100237.59;;;2.13;82.46
48792;BME280;34587;48.816;9.420;2023-01-25T07:33:06;100235.81;;;2.12;82.35
48792;BME280;34587;48.816;9.420;2023-01-25T07:35:31;100236.09;;;2.18;82.33
48792;BME280;34587;48.816;9.420;2023-01-25T07:37:57;100239.56;;;2.20;82.19
48792;BME280;34587;48.816;9.420;2023-01-25T07:40:22;100234.66;;;2.26;81.50
48792;BME280;34587;48.816;9.420;2023-01-25T07:42:50;100242.94;;;2.19;82.23
48792;BME280;34587;48.816;9.420;2023-01-25T07:45:16;100236.53;;;2.30;82.60
48792;BME280;34587;48.816;9.420;2023-01-25T07:47:41;100242.78;;;2.37;81.58
48792;BME280;34587;48.816;9.420;2023-01-25T07:50:07;100251.00;;;2.30;81.90
48792;BME280;34587;48.816;9.420;2023-01-25T07:52:32;100245.78;;;2.27;82.33
48792;BME280;34587;48.816;9.420;2023-01-25T07:54:58;100244.81;;;2.23;82.63
48792;BME280;34587;48.816;9.420;2023-01-25T07:57:23;100242.34;;;2.26;81.87
48792;BME280;34587;48.816;9.420;2023-01-25T07:59:49;100233.88;;;2.50;81.10
48792;BME280;34587;48.816;9.420;2023-01-25T08:02:15;100235.03;;;2.36;81.07
48792;BME280;34587;48.816;9.420;2023-01-25T08:04:40;100225.28;;;2.48;80.89
48792;BME280;34587;48.816;9.420;2023-01-25T08:07:06;100225.84;;;2.63;79.65
48792;BME280;34587;48.816;9.420;2023-01-25T08:09:32;100230.13;;;2.64;79.64
48792;BME280;34587;48.816;9.420;2023-01-25T08:11:57;100240.53;;;2.46;80.91
48792;BME280;34587;48.816;9.420;2023-01-25T08:14:23;100233.88;;;2.50;80.58
48792;BME280;34587;48.816;9.420;2023-01-25T08:16:49;100239.34;;;2.59;79.66
48792;BME280;34587;48.816;9.420;2023-01-25T08:19:14;100236.22;;;2.66;79.71
48792;BME280;34587;48.816;9.420;2023-01-25T08:21:40;100239.47;;;2.62;79.58
48792;BME280;34587;48.816;9.420;2023-01-25T08:24:06;100241.06;;;2.60;79.71
48792;BME280;34587;48.816;9.420;2023-01-25T08:26:33;100240.31;;;2.63;79.87
48792;BME280;34587;48.816;9.420;2023-01-25T08:28:58;100240.16;;;2.58;78.45
48792;BME280;34587;48.816;9.420;2023-01-25T08:31:29;100245.53;;;2.66;78.05
48792;BME280;34587;48.816;9.420;2023-01-25T08:33:55;100240.31;;;2.63;78.66
48792;BME280;34587;48.816;9.420;2023-01-25T08:36:21;100244.81;;;2.68;78.48
48792;BME280;34587;48.816;9.420;2023-01-25T08:38:55;100238.88;;;2.47;78.97
48792;BME280;34587;48.816;9.420;2023-01-25T08:41:21;100243.38;;;2.31;80.19
48792;BME280;34587;48.816;9.420;2023-01-25T08:43:47;100231.78;;;2.40;79.31
48792;BME280;34587;48.816;9.420;2023-01-25T08:46:13;100233.06;;;2.28;80.08
48792;BME280;34587;48.816;9.420;2023-01-25T08:48:39;100236.03;;;2.39;79.29
48792;BME280;34587;48.816;9.420;2023-01-25T08:51:07;100228.41;;;2.41;79.72
48792;BME280;34587;48.816;9.420;2023-01-25T08:53:33;100219.34;;;2.49;78.37
48792;BME280;34587;48.816;9.420;2023-01-25T08:56:03;100220.25;;;2.51;78.88
48792;BME280;34587;48.816;9.420;2023-01-25T08:58:29;100216.44;;;2.40;80.16
48792;BME280;34587;48.816;9.420;2023-01-25T09:01:00;100209.94;;;2.48;78.40
48792;BME280;34587;48.816;9.420;2023-01-25T09:03:26;100207.88;;;2.62;78.31
48792;BME280;34587;48.816;9.420;2023-01-25T09:05:52;100213.41;;;2.50;77.95
48792;BME280;34587;48.816;9.420;2023-01-25T09:08:18;100204.56;;;2.42;79.20
48792;BME280;34587;48.816;9.420;2023-01-25T09:10:43;100206.28;;;2.19;79.91
48792;BME280;34587;48.816;9.420;2023-01-25T09:13:08;100211.84;;;2.31;79.72
48792;BME280;34587;48.816;9.420;2023-01-25T09:15:34;100203.28;;;2.53;78.30
48792;BME280;34587;48.816;9.420;2023-01-25T09:17:59;100207.94;;;2.63;78.35
48792;BME280;34587;48.816;9.420;2023-01-25T09:20:24;100210.72;;;2.69;77.91
48792;BME280;34587;48.816;9.420;2023-01-25T09:22:50;100214.44;;;2.77;78.07
48792;BME280;34587;48.816;9.420;2023-01-25T09:25:15;100211.03;;;2.78;77.67
48792;BME280;34587;48.816;9.420;2023-01-25T09:27:41;100204.31;;;2.80;76.66
48792;BME280;34587;48.816;9.420;2023-01-25T09:30:07;100202.00;;;2.64;77.47
48792;BME280;34587;48.816;9.420;2023-01-25T09:32:33;100196.66;;;2.58;77.89
48792;BME280;34587;48.816;9.420;2023-01-25T09:34:58;100198.94;;;2.50;78.26
48792;BME280;34587;48.816;9.420;2023-01-25T09:37:24;100193.06;;;2.53;77.66
48792;BME280;34587;48.816;9.420;2023-01-25T09:39:49;100193.16;;;2.56;77.86
48792;BME280;34587;48.816;9.420;2023-01-25T09:42:33;100191.19;;;2.49;78.59
48792;BME280;34587;48.816;9.420;2023-01-25T09:45:11;100196.31;;;2.49;78.88
48792;BME280;34587;48.816;9.420;2023-01-25T09:47:46;100190.97;;;2.43;79.68
48792;BME280;34587;48.816;9.420;2023-01-25T09:50:18;100196.84;;;2.40;79.51
48792;BME280;34587;48.816;9.420;2023-01-25T09:55:32;100194.06;;;2.34;79.92
48792;BME280;34587;48.816;9.420;2023-01-25T09:58:00;100197.19;;;2.49;78.91
48792;BME280;34587;48.816;9.420;2023-01-25T10:00:36;100195.44;;;2.26;79.76
48792;BME280;34587;48.816;9.420;2023-01-25T10:03:12;100196.78;;;2.16;80.86
48792;BME280;34587;48.816;9.420;2023-01-25T10:05:44;100202.25;;;2.25;80.57
48792;BME280;34587;48.816;9.420;2023-01-25T10:08:18;100193.25;;;2.35;80.54
48792;BME280;34587;48.816;9.420;2023-01-25T10:10:53;100187.81;;;2.50;79.42
48792;BME280;34587;48.816;9.420;2023-01-25T10:13:22;100186.66;;;2.64;78.28
48792;BME280;34587;48.816;9.420;2023-01-25T10:15:52;100186.44;;;2.58;78.69
48792;BME280;34587;48.816;9.420;2023-01-25T10:18:29;100179.09;;;2.67;78.99
48792;BME280;34587;48.816;9.420;2023-01-25T10:21:01;100184.25;;;2.69;78.34
48792;BME280;34587;48.816;9.420;2023-01-25T10:23:56;100177.91;;;2.81;77.62
48792;BME280;34587;48.816;9.420;2023-01-25T10:26:28;100168.16;;;2.71;78.25
48792;BME280;34587;48.816;9.420;2023-01-25T10:29:18;100167.38;;;2.74;78.25
48792;BME280;34587;48.816;9.420;2023-01-25T10:31:48;100171.19;;;2.61;78.76
48792;BME280;34587;48.816;9.420;2023-01-25T10:34:23;100164.97;;;2.78;78.44
48792;BME280;34587;48.816;9.420;2023-01-25T10:36:54;100158.13;;;2.77;77.08
48792;BME280;34587;48.816;9.420;2023-01-25T10:39:20;100164.88;;;2.75;77.10
48792;BME280;34587;48.816;9.420;2023-01-25T10:41:55;100151.94;;;2.71;76.88
48792;BME280;34587;48.816;9.420;2023-01-25T10:44:26;100153.19;;;2.82;77.33
48792;BME280;34587;48.816;9.420;2023-01-25T10:47:14;100144.84;;;2.88;77.11
48792;BME280;34587;48.816;9.420;2023-01-25T10:49:46;100146.38;;;2.82;77.30
48792;BME280;34587;48.816;9.420;2023-01-25T10:54:40;100142.91;;;2.80;77.75
48792;BME280;34587;48.816;9.420;2023-01-25T10:57:08;100142.91;;;2.56;77.68
48792;BME280;34587;48.816;9.420;2023-01-25T10:59:36;100150.06;;;2.43;79.00
48792;BME280;34587;48.816;9.420;2023-01-25T11:05:29;100138.19;;;2.45;79.17
48792;BME280;34587;48.816;9.420;2023-01-25T11:07:55;100129.94;;;2.52;79.02
48792;BME280;34587;48.816;9.420;2023-01-25T11:10:35;100133.75;;;2.63;78.56
48792;BME280;34587;48.816;9.420;2023-01-25T11:15:45;100119.94;;;2.83;78.54
48792;BME280;34587;48.816;9.420;2023-01-25T11:18:21;100123.28;;;2.81;77.70
48792;BME280;34587;48.816;9.420;2023-01-25T11:20:47;100118.50;;;2.90;78.15
48792;BME280;34587;48.816;9.420;2023-01-25T11:23:24;100116.84;;;2.92;77.83
48792;BME280;34587;48.816;9.420;2023-01-25T11:25:50;100116.75;;;2.65;78.42
48792;BME280;34587;48.816;9.420;2023-01-25T11:28:21;100112.88;;;2.76;78.86
48792;BME280;34587;48.816;9.420;2023-01-25T11:30:48;100113.69;;;2.75;78.68
48792;BME280;34587;48.816;9.420;2023-01-25T11:33:16;100106.81;;;2.74;78.63
48792;BME280;34587;48.816;9.420;2023-01-25T11:38:32;100100.41;;;2.86;78.32
48792;BME280;34587;48.816;9.420;2023-01-25T11:41:10;100098.31;;;2.75;78.64
48792;BME280;34587;48.816;9.420;2023-01-25T11:52:21;100074.41;;;2.49;80.43
48792;BME280;34587;48.816;9.420;2023-01-25T11:54:56;100070.16;;;2.50;80.31
48792;BME280;34587;48.816;9.420;2023-01-25T11:57:38;100064.16;;;2.73;79.46
48792;BME280;34587;48.816;9.420;2023-01-25T12:05:53;100056.13;;;2.39;79.51
48792;BME280;34587;48.816;9.420;2023-01-25T12:11:02;100040.25;;;2.47;79.35
48792;BME280;34587;48.816;9.420;2023-01-25T12:25:20;100008.25;;;2.35;79.73
48792;BME280;34587;48.816;9.420;2023-01-25T12:32:05;99986.06;;;2.34;81.53
48792;BME280;34587;48.816;9.420;2023-01-25T12:34:17;99977.22;;;2.49;80.32
48792;BME280;34587;48.816;9.420;2023-01-25T12:36:45;99969.13;;;2.63;79.48
48792;BME280;34587;48.816;9.420;2023-01-25T12:39:19;99964.69;;;2.57;79.57
48792;BME280;34587;48.816;9.420;2023-01-25T12:44:32;99963.22;;;2.65;79.47
48792;BME280;34587;48.816;9.420;2023-01-25T12:49:37;99961.00;;;2.49;79.95
48792;BME280;34587;48.816;9.420;2023-01-25T12:52:15;99958.25;;;2.43;80.54
48792;BME280;34587;48.816;9.420;2023-01-25T12:54:44;99952.78;;;2.59;79.82
48792;BME280;34587;48.816;9.420;2023-01-25T12:57:25;99944.22;;;2.57;79.69
48792;BME280;34587;48.816;9.420;2023-01-25T13:02:36;99942.38;;;2.53;79.92
48792;BME280;34587;48.816;9.420;2023-01-25T13:05:26;99936.41;;;2.52;80.29
48792;BME280;34587;48.816;9.420;2023-01-25T13:10:53;99926.09;;;2.51;80.40
48792;BME280;34587;48.816;9.420;2023-01-25T13:13:25;99921.59;;;2.44;80.29
48792;BME280;34587;48.816;9.420;2023-01-25T13:15:51;99915.81;;;2.49;79.89
48792;BME280;34587;48.816;9.420;2023-01-25T13:18:37;99920.31;;;2.56;79.44
48792;BME280;34587;48.816;9.420;2023-01-25T13:21:06;99914.75;;;2.43;79.49
48792;BME280;34587;48.816;9.420;2023-01-25T13:23:42;99910.88;;;2.28;79.97
48792;BME280;34587;48.816;9.420;2023-01-25T13:28:55;99909.03;;;2.51;79.96
48792;BME280;34587;48.816;9.420;2023-01-25T13:34:03;99901.34;;;2.50;80.57
48792;BME280;34587;48.816;9.420;2023-01-25T13:44:27;99900.66;;;2.28;80.72
48792;BME280;34587;48.816;9.420;2023-01-25T13:46:56;99888.69;;;2.27;80.95
48792;BME280;34587;48.816;9.420;2023-01-25T13:49:33;99885.50;;;2.35;81.36
48792;BME280;34587;48.816;9.420;2023-01-25T13:52:00;99884.75;;;2.37;80.85
48792;BME280;34587;48.816;9.420;2023-01-25T13:54:26;99875.75;;;2.50;80.54
48792;BME280;34587;48.816;9.420;2023-01-25T13:57:11;99872.91;;;2.41;80.92
48792;BME280;34587;48.816;9.420;2023-01-25T13:59:37;99880.50;;;2.38;80.91
48792;BME280;34587;48.816;9.420;2023-01-25T14:02:02;99871.63;;;2.53;80.68
48792;BME280;34587;48.816;9.420;2023-01-25T14:04:35;99875.44;;;2.14;81.13
48792;BME280;34587;48.816;9.420;2023-01-25T14:07:01;99876.97;;;2.09;82.08
48792;BME280;34587;48.816;9.420;2023-01-25T14:09:34;99872.72;;;2.09;81.65
48792;BME280;34587;48.816;9.420;2023-01-25T14:12:01;99877.50;;;1.98;81.76
48792;BME280;34587;48.816;9.420;2023-01-25T14:17:16;99870.78;;;2.02;82.77
48792;BME280;34587;48.816;9.420;2023-01-25T14:19:47;99876.00;;;2.05;81.96
48792;BME280;34587;48.816;9.420;2023-01-25T14:22:28;99878.19;;;1.94;82.63
48792;BME280;34587;48.816;9.420;2023-01-25T14:27:56;99873.94;;;1.95;83.78
48792;BME280;34587;48.816;9.420;2023-01-25T14:30:24;99880.31;;;1.82;84.33
48792;BME280;34587;48.816;9.420;2023-01-25T14:32:54;99868.84;;;1.95;83.64
48792;BME280;34587;48.816;9.420;2023-01-25T14:37:55;99864.25;;;2.10;82.59
48792;BME280;34587;48.816;9.420;2023-01-25T14:40:22;99870.78;;;2.02;82.31
48792;BME280;34587;48.816;9.420;2023-01-25T14:42:49;99871.47;;;1.98;82.66
48792;BME280;34587;48.816;9.420;2023-01-25T14:45:16;99870.69;;;1.99;82.95
48792;BME280;34587;48.816;9.420;2023-01-25T14:47:41;99868.00;;;1.70;83.72
48792;BME280;34587;48.816;9.420;2023-01-25T14:50:35;99866.00;;;1.87;83.93
48792;BME280;34587;48.816;9.420;2023-01-25T14:53:15;99865.34;;;1.93;83.31
48792;BME280;34587;48.816;9.420;2023-01-25T14:55:44;99854.59;;;1.77;83.88
48792;BME280;34587;48.816;9.420;2023-01-25T14:58:16;99858.59;;;1.69;84.69
48792;BME280;34587;48.816;9.420;2023-01-25T15:00:51;99852.25;;;1.84;84.71
48792;BME280;34587;48.816;9.420;2023-01-25T15:03:16;99841.25;;;1.85;83.57
48792;BME280;34587;48.816;9.420;2023-01-25T15:05:45;99835.22;;;2.08;82.80
48792;BME280;34587;48.816;9.420;2023-01-25T15:10:57;99841.75;;;2.00;82.45
48792;BME280;34587;48.816;9.420;2023-01-25T15:13:43;99841.63;;;1.97;82.82
48792;BME280;34587;48.816;9.420;2023-01-25T15:16:09;99837.34;;;1.96;82.55
48792;BME280;34587;48.816;9.420;2023-01-25T15:18:53;99832.94;;;1.92;84.19
48792;BME280;34587;48.816;9.420;2023-01-25T15:21:31;99825.44;;;1.96;84.19
48792;BME280;34587;48.816;9.420;2023-01-25T15:23:59;99822.50;;;2.11;82.75
48792;BME280;34587;48.816;9.420;2023-01-25T15:26:30;99818.91;;;2.04;83.20
48792;BME280;34587;48.816;9.420;2023-01-25T15:28:58;99819.88;;;2.08;83.14
48792;BME280;34587;48.816;9.420;2023-01-25T15:31:26;99813.88;;;2.08;82.90
48792;BME280;34587;48.816;9.420;2023-01-25T15:33:52;99812.81;;;2.01;83.08
48792;BME280;34587;48.816;9.420;2023-01-25T15:36:17;99813.69;;;2.01;82.88
48792;BME280;34587;48.816;9.420;2023-01-25T15:38:44;99804.81;;;1.90;83.97
48792;BME280;34587;48.816;9.420;2023-01-25T15:41:09;99808.94;;;1.87;84.50
48792;BME280;34587;48.816;9.420;2023-01-25T15:43:36;99799.53;;;1.86;84.00
48792;BME280;34587;48.816;9.420;2023-01-25T15:46:02;99793.03;;;1.95;83.93
48792;BME280;34587;48.816;9.420;2023-01-25T15:48:35;99790.06;;;2.09;82.44
48792;BME280;34587;48.816;9.420;2023-01-25T15:51:02;99784.81;;;2.04;82.77
48792;BME280;34587;48.816;9.420;2023-01-25T15:53:27;99780.94;;;1.90;83.53
48792;BME280;34587;48.816;9.420;2023-01-25T15:55:56;99781.94;;;1.95;83.84
48792;BME280;34587;48.816;9.420;2023-01-25T15:58:29;99777.84;;;2.00;82.80
48792;BME280;34587;48.816;9.420;2023-01-25T16:00:55;99771.31;;;2.08;82.38
48792;BME280;34587;48.816;9.420;2023-01-25T16:03:20;99774.78;;;2.10;82.23
48792;BME280;34587;48.816;9.420;2023-01-25T16:05:52;99765.09;;;2.00;82.02
48792;BME280;34587;48.816;9.420;2023-01-25T16:08:18;99762.19;;;1.89;82.40
48792;BME280;34587;48.816;9.420;2023-01-25T16:10:45;99765.66;;;1.91;82.07
48792;BME280;34587;48.816;9.420;2023-01-25T16:13:10;99763.34;;;1.99;82.21
48792;BME280;34587;48.816;9.420;2023-01-25T16:15:37;99754.16;;;1.78;83.08
48792;BME280;34587;48.816;9.420;2023-01-25T16:18:03;99758.69;;;1.87;83.17
48792;BME280;34587;48.816;9.420;2023-01-25T16:20:29;99755.53;;;1.94;82.27
48792;BME280;34587;48.816;9.420;2023-01-25T16:22:54;99753.19;;;2.02;82.06
48792;BME280;34587;48.816;9.420;2023-01-25T16:25:20;99746.53;;;2.07;81.69
48792;BME280;34587;48.816;9.420;2023-01-25T16:27:45;99748.88;;;1.99;81.89
48792;BME280;34587;48.816;9.420;2023-01-25T16:30:23;99751.50;;;2.02;81.93
48792;BME280;34587;48.816;9.420;2023-01-25T16:32:50;99752.91;;;1.93;82.44
48792;BME280;34587;48.816;9.420;2023-01-25T16:35:16;99737.03;;;2.03;81.36
48792;BME280;34587;48.816;9.420;2023-01-25T16:37:42;99742.50;;;1.87;82.08
48792;BME280;34587;48.816;9.420;2023-01-25T16:40:27;99742.50;;;1.87;82.91
48792;BME280;34587;48.816;9.420;2023-01-25T16:42:54;99743.44;;;1.63;83.37
48792;BME280;34587;48.816;9.420;2023-01-25T16:45:20;99745.38;;;1.70;83.95
48792;BME280;34587;48.816;9.420;2023-01-25T16:47:46;99740.47;;;1.76;83.91
48792;BME280;34587;48.816;9.420;2023-01-25T16:50:13;99738.66;;;1.99;82.13
48792;BME280;34587;48.816;9.420;2023-01-25T16:52:39;99742.78;;;1.96;82.53
48792;BME280;34587;48.816;9.420;2023-01-25T16:55:09;99739.94;;;1.87;82.98
48792;BME280;34587;48.816;9.420;2023-01-25T16:57:40;99743.53;;;1.66;83.42
48792;BME280;34587;48.816;9.420;2023-01-25T17:00:08;99748.75;;;1.69;83.84
48792;BME280;34587;48.816;9.420;2023-01-25T17:02:36;99746.00;;;1.89;83.13
48792;BME280;34587;48.816;9.420;2023-01-25T17:05:02;99741.88;;;1.68;83.38
48792;BME280;34587;48.816;9.420;2023-01-25T17:07:27;99730.91;;;1.98;81.66
48792;BME280;34587;48.816;9.420;2023-01-25T17:09:52;99734.59;;;1.79;82.61
48792;BME280;34587;48.816;9.420;2023-01-25T17:12:18;99725.59;;;1.90;82.49
48792;BME280;34587;48.816;9.420;2023-01-25T17:14:43;99720.50;;;1.92;82.14
48792;BME280;34587;48.816;9.420;2023-01-25T17:17:08;99724.88;;;1.94;82.01
48792;BME280;34587;48.816;9.420;2023-01-25T17:19:33;99728.91;;;1.88;82.10
48792;BME280;34587;48.816;9.420;2023-01-25T17:21:59;99727.81;;;1.79;82.95
48792;BME280;34587;48.816;9.420;2023-01-25T17:24:24;99730.34;;;1.79;82.33
48792;BME280;34587;48.816;9.420;2023-01-25T17:26:53;99726.63;;;1.70;83.09
48792;BME280;34587;48.816;9.420;2023-01-25T17:29:19;99721.47;;;1.68;83.17
48792;BME280;34587;48.816;9.420;2023-01-25T17:31:46;99711.69;;;1.55;83.52
48792;BME280;34587;48.816;9.420;2023-01-25T17:34:13;99714.72;;;1.70;82.97
48792;BME280;34587;48.816;9.420;2023-01-25T17:36:40;99704.59;;;1.73;82.54
48792;BME280;34587;48.816;9.420;2023-01-25T17:39:06;99709.13;;;1.55;83.10
48792;BME280;34587;48.816;9.420;2023-01-25T17:41:32;99700.47;;;1.77;82.57
48792;BME280;34587;48.816;9.420;2023-01-25T17:43:57;99711.16;;;1.65;82.18
48792;BME280;34587;48.816;9.420;2023-01-25T17:46:25;99697.56;;;1.66;82.45
48792;BME280;34587;48.816;9.420;2023-01-25T17:48:54;99702.78;;;1.69;82.73
48792;BME280;34587;48.816;9.420;2023-01-25T17:51:20;99697.56;;;1.66;82.97
48792;BME280;34587;48.816;9.420;2023-01-25T17:53:45;99684.91;;;1.69;82.51
48792;BME280;34587;48.816;9.420;2023-01-25T17:56:11;99697.56;;;1.66;83.17
48792;BME280;34587;48.816;9.420;2023-01-25T17:58:38;99688.25;;;1.68;83.20
48792;BME280;34587;48.816;9.420;2023-01-25T18:01:15;99682.06;;;1.60;83.31
48792;BME280;34587;48.816;9.420;2023-01-25T18:03:42;99679.56;;;1.63;84.00
48792;BME280;34587;48.816;9.420;2023-01-25T18:06:08;99678.50;;;1.84;83.32
48792;BME280;34587;48.816;9.420;2023-01-25T18:08:39;99682.34;;;1.69;81.81
48792;BME280;34587;48.816;9.420;2023-01-25T18:11:07;99677.03;;;1.63;83.42
48792;BME280;34587;48.816;9.420;2023-01-25T18:13:38;99683.38;;;1.49;83.43
48792;BME280;34587;48.816;9.420;2023-01-25T18:16:05;99683.59;;;1.55;83.31
48792;BME280;34587;48.816;9.420;2023-01-25T18:18:30;99670.59;;;1.74;82.29
48792;BME280;34587;48.816;9.420;2023-01-25T18:21:10;99673.31;;;1.80;81.61
48792;BME280;34587;48.816;9.420;2023-01-25T18:23:37;99670.06;;;1.59;82.82
48792;BME280;34587;48.816;9.420;2023-01-25T18:26:04;99673.03;;;1.71;81.60
48792;BME280;34587;48.816;9.420;2023-01-25T18:28:31;99669.50;;;1.41;84.05
48792;BME280;34587;48.816;9.420;2023-01-25T18:31:03;99657.94;;;1.52;83.15
48792;BME280;34587;48.816;9.420;2023-01-25T18:33:28;99655.81;;;1.39;84.92
48792;BME280;34587;48.816;9.420;2023-01-25T18:35:54;99664.16;;;1.35;86.64
48792;BME280;34587;48.816;9.420;2023-01-25T18:38:22;99657.44;;;1.37;86.20
48792;BME280;34587;48.816;9.420;2023-01-25T18:40:47;99646.69;;;1.45;85.72
48792;BME280;34587;48.816;9.420;2023-01-25T18:43:12;99652.53;;;1.43;85.88
48792;BME280;34587;48.816;9.420;2023-01-25T18:45:38;99648.25;;;1.42;85.29
48792;BME280;34587;48.816;9.420;2023-01-25T18:48:06;99641.34;;;1.39;85.53
48792;BME280;34587;48.816;9.420;2023-01-25T18:50:34;99642.44;;;1.46;84.57
48792;BME280;34587;48.816;9.420;2023-01-25T18:53:02;99639.88;;;1.73;82.26
48792;BME280;34587;48.816;9.420;2023-01-25T18:55:28;99635.75;;;1.78;81.71
48792;BME280;34587;48.816;9.420;2023-01-25T18:57:53;99636.09;;;1.60;82.42